• Join FlightAware (Why Join?)
  • Login
  • US Flag 
03:07PM EDT


 

Airport Tracker/Info


-or-


 

Live Flight TrackerFlight Track Log ✈ ELJ384 ✈ 14-Mar-2014 ✈ KHPN - KAPF

Flight Track Log - Related Links

Times and Time Zones

All times are in EDT time to prevent confusion due to time zone crossing. See the ELJ384 flight status page for this flight to view local times or setup timezone preferences in your user account.

Time Position Orientation Groundspeed Altitude Reporting Facility
EDT Latitude Longitude Course Direction KTS MPH feet Rate Location/Type
04:56PM 41.0333 -73.7333 311° West 201 231 1,900  Level New York TRACON
04:57PM 41.0667 -73.7833 311° West 209 241 3,500 2,100 Climbing New York TRACON
04:58PM 41.0833 -73.8667 285° West 221 254 6,200 2,400 Climbing New York TRACON
04:59PM 41.0333 -73.9167 217° Southwest 263 303 8,400 1,380 Climbing New York TRACON
05:00PM 40.9500 -73.8667 156° South 291 335 9,000 1,020 Climbing New York TRACON
05:01PM 40.8833 -73.8333 159° South 289 333 10,500 1,500 Climbing New York TRACON
05:02PM 40.8333 -73.9000 225° Southwest 244 281 12,000 720 Climbing New York TRACON
05:03PM 40.8167 -73.9833 255° West 243 280 12,000 540 Level New York TRACON
05:04PM 40.8000 -74.0833 258° West 270 311 13,100 1,440 Climbing New York TRACON
05:05PM 40.7667 -74.1833 246° West 299 344 14,900 1,200 Climbing New York TRACON
05:07PM 40.6839 -74.3697 240° Southwest 297 342 16,900 1,320 Climbing New York Center
05:08PM 40.6436 -74.4606 240° Southwest 314 361 19,100 2,700 Climbing New York Center
05:09PM 40.5986 -74.5619 240° Southwest 319 367 22,300 3,060 Climbing New York Center
05:10PM 40.5514 -74.6658 239° Southwest 324 373 25,200 2,520 Climbing New York Center
05:11PM 40.4897 -74.7661 231° Southwest 341 392 27,500 2,280 Climbing New York Center
05:12PM 40.4281 -74.8661 231° Southwest 353 406 29,800 2,640 Climbing New York Center
05:13PM 40.3661 -74.9661 231° Southwest 363 418 32,700 2,640 Climbing New York Center
05:14PM 40.3019 -75.0683 231° Southwest 363 418 35,300 2,100 Climbing New York Center
05:15PM 40.2400 -75.1706 232° Southwest 363 418 37,000 1,260 Climbing New York Center
05:16PM 40.1756 -75.2722 230° Southwest 363 418 37,900 480 Climbing New York Center
05:17PM 40.1067 -75.3819 231° Southwest 374 430 38,000  Climbing New York Center
05:18PM 40.0378 -75.4911 231° Southwest 386 444 38,000  Level New York Center
05:19PM 39.9667 -75.6000 230° Southwest 392 451 38,000  Level New York Center
05:20PM 39.8978 -75.7064 230° Southwest 392 451 38,000  Level New York Center
05:21PM 39.8306 -75.8150 231° Southwest 392 451 38,000  Level New York Center
05:22PM 39.7719 -75.9136 232° Southwest 390 449 38,000  Level New York Center
05:23PM 39.6872 -76.0422 229° Southwest 390 449 38,000  Level New York Center
05:24PM 39.6217 -76.1506 232° Southwest 390 449 38,000  Level New York Center
05:25PM 39.5522 -76.2558 229° Southwest 390 449 38,000  Level New York Center
05:27PM 39.4650 -76.3872 229° Southwest 377 434 38,000  Level Washington Center
05:28PM 39.3997 -76.4914 231° Southwest 377 434 38,000  Level Washington Center
05:29PM 39.3364 -76.5897 230° Southwest 382 440 38,000  Level Washington Center
05:30PM 39.2689 -76.6961 231° Southwest 387 445 38,000  Level Washington Center
05:31PM 39.2011 -76.7994 230° Southwest 387 445 38,000  Level Washington Center
05:32PM 39.1333 -76.9028 230° Southwest 387 445 38,000  Level Washington Center
05:33PM 39.0633 -77.0111 230° Southwest 387 445 38,000  Level Washington Center
05:34PM 38.9789 -77.1136 223° Southwest 393 452 38,000  Level Washington Center
05:35PM 38.8942 -77.2053 220° Southwest 393 452 38,000  Level Washington Center
05:36PM 38.8117 -77.2942 220° Southwest 393 452 38,000  Level Washington Center
05:37PM 38.7292 -77.3853 221° Southwest 393 452 38,000  Level Washington Center
05:38PM 38.6464 -77.4708 219° Southwest 393 452 38,000  Level Washington Center
05:39PM 38.5658 -77.5619 222° Southwest 387 445 38,000  Level Washington Center
05:40PM 38.4831 -77.6497 220° Southwest 387 445 38,000  Level Washington Center
05:41PM 38.4000 -77.7403 221° Southwest 387 445 38,000  Level Washington Center
05:42PM 38.3214 -77.8253 220° Southwest 387 445 38,000  Level Washington Center
05:43PM 38.2364 -77.9153 220° Southwest 387 445 38,000  Level Washington Center
05:44PM 38.1575 -78.0028 221° Southwest 382 440 38,000  Level Washington Center
05:45PM 38.0764 -78.0897 220° Southwest 382 440 38,000  Level Washington Center
05:46PM 38.0017 -78.1664 219° Southwest 382 440 38,000  Level Washington Center
05:47PM 37.9100 -78.2581 218° Southwest 376 433 38,000  Level Washington Center
05:48PM 37.8228 -78.3364 215° Southwest 388 447 38,000  Level Washington Center
05:49PM 37.7481 -78.4100 218° Southwest 393 452 38,000  Level Washington Center
05:50PM 37.6606 -78.4906 216° Southwest 393 452 38,000  Level Washington Center
05:51PM 37.5731 -78.5736 217° Southwest 393 452 38,000  Level Washington Center
05:52PM 37.4875 -78.6542 217° Southwest 393 452 38,000  Level Washington Center
05:53PM 37.3914 -78.7444 217° Southwest 398 458 38,000  Level Washington Center
05:54PM 37.3039 -78.8242 216° Southwest 398 458 38,000  Level Washington Center
05:55PM 37.2181 -78.9042 217° Southwest 398 458 38,000  Level Washington Center
05:56PM 37.1303 -78.9836 216° Southwest 398 458 38,000  Level Washington Center
05:57PM 37.0444 -79.0658 217° Southwest 398 458 38,000  Level Washington Center
05:58PM 36.9589 -79.1425 216° Southwest 398 458 38,000  Level Washington Center
05:59PM 36.8817 -79.2142 217° Southwest 398 458 38,000  Level Washington Center
06:00PM 36.7936 -79.2983 217° Southwest 398 458 38,000  Level Washington Center
06:01PM 36.7056 -79.3744 215° Southwest 398 458 38,000  Level Washington Center
06:02PM 36.6194 -79.4556 217° Southwest 398 458 38,000  Level Washington Center
06:03PM 36.5250 -79.5414 216° Southwest 398 458 38,000  Level Washington Center
06:04PM 36.4133 -79.6400 215° Southwest 408 470 38,000  Level Atlanta Center
06:05PM 36.3364 -79.7089 216° Southwest 398 458 38,000  Level Atlanta Center
06:06PM 36.2494 -79.7881 216° Southwest 393 452 38,000  Level Atlanta Center
06:07PM 36.1647 -79.8672 217° Southwest 393 452 38,000  Level Atlanta Center
06:08PM 36.0756 -79.9436 215° Southwest 393 452 38,000  Level Atlanta Center
06:09PM 35.9694 -80.0158 209° Southwest 393 452 38,000  Level Atlanta Center
06:10PM 35.8647 -80.0672 202° Southwest 399 459 38,000  Level Atlanta Center
06:11PM 35.7619 -80.1181 202° Southwest 409 471 38,000  Level Atlanta Center
06:12PM 35.6572 -80.1717 203° Southwest 409 471 38,000  Level Atlanta Center
06:13PM 35.5650 -80.2169 202° Southwest 409 471 38,000  Level Atlanta Center
06:14PM 35.4622 -80.2675 202° Southwest 409 471 38,000  Level Atlanta Center
06:15PM 35.3553 -80.3233 203° Southwest 409 471 38,000  Level Atlanta Center
06:16PM 35.2525 -80.3739 202° Southwest 409 471 38,000  Level Atlanta Center
06:17PM 35.1436 -80.4269 202° Southwest 409 471 38,000  Level Atlanta Center
06:19PM 34.9158 -80.5381 202° Southwest 417 480 38,000  Level Jacksonville Center
06:20PM 34.8044 -80.5994 204° Southwest 411 473 38,000  Level Jacksonville Center
06:21PM 34.7011 -80.6475 201° Southwest 406 467 38,000  Level Jacksonville Center
06:22PM 34.5894 -80.7008 201° Southwest 412 474 38,000  Level Jacksonville Center
06:23PM 34.4881 -80.7539 203° Southwest 412 474 38,000  Level Jacksonville Center
06:24PM 34.3864 -80.7917 197° South 405 466 38,000  Level Jacksonville Center
06:25PM 34.2831 -80.8519 206° Southwest 405 466 38,000  Level Jacksonville Center
06:26PM 34.1836 -80.8994 202° Southwest 400 460 38,000  Level Jacksonville Center
06:27PM 34.0822 -80.9494 202° Southwest 394 453 38,000  Level Jacksonville Center
06:28PM 33.9808 -80.9992 202° Southwest 394 453 38,000  Level Jacksonville Center
06:29PM 33.8814 -81.0414 199° South 394 453 38,000  Level Jacksonville Center
06:30PM 33.7778 -81.0911 202° Southwest 394 453 38,000  Level Jacksonville Center
06:31PM 33.6864 -81.1403 204° Southwest 394 453 38,000  Level Jacksonville Center
06:32PM 33.5850 -81.1922 203° Southwest 394 453 38,000  Level Jacksonville Center
06:33PM 33.4833 -81.2414 202° Southwest 394 453 38,000  Level Jacksonville Center
06:34PM 33.3797 -81.2956 204° Southwest 394 453 38,000  Level Jacksonville Center
06:35PM 33.2758 -81.3447 202° Southwest 400 460 38,000  Level Jacksonville Center
06:36PM 33.1742 -81.3936 202° Southwest 400 460 38,000  Level Jacksonville Center
06:37PM 33.0706 -81.4425 202° Southwest 400 460 38,000  Level Jacksonville Center
06:38PM 32.9581 -81.4764 194° South 405 466 38,000  Level Jacksonville Center
06:39PM 32.8394 -81.5056 192° South 423 487 38,000  Level Jacksonville Center
06:40PM 32.7250 -81.5344 192° South 429 494 38,000  Level Jacksonville Center
06:41PM 32.6022 -81.5633 191° South 420 483 38,000  Level Jacksonville Center
06:42PM 32.4856 -81.5922 192° South 426 490 38,000  Level Jacksonville Center
06:43PM 32.3814 -81.6183 192° South 426 490 38,000  Level Jacksonville Center
06:44PM 32.2544 -81.6494 192° South 432 497 38,000  Level Jacksonville Center
06:45PM 32.1503 -81.6731 191° South 427 491 38,000  Level Jacksonville Center
06:46PM 32.0253 -81.7017 191° South 427 491 38,000  Level Jacksonville Center
06:47PM 31.9106 -81.7300 192° South 419 482 38,000  Level Jacksonville Center
06:48PM 31.8064 -81.7558 192° South 427 491 38,000  Level Jacksonville Center
06:49PM 31.6814 -81.7867 192° South 427 491 38,000  Level Jacksonville Center
06:50PM 31.5689 -81.8122 191° South 427 491 38,000  Level Jacksonville Center
06:51PM 31.4564 -81.8381 191° South 427 491 38,000  Level Jacksonville Center
06:52PM 31.3544 -81.8636 192° South 417 480 38,000  Level Jacksonville Center
06:53PM 31.2439 -81.8867 190° South 417 480 38,000  Level Jacksonville Center
06:54PM 31.1333 -81.9144 192° South 412 474 38,000  Level Jacksonville Center
06:55PM 31.0231 -81.9422 192° South 412 474 38,000  Level Jacksonville Center
06:56PM 30.9125 -81.9675 191° South 412 474 38,000  Level Jacksonville Center
06:57PM 30.8000 -81.9928 191° South 412 474 38,000  Level Jacksonville Center
06:58PM 30.6875 -82.0181 191° South 412 474 38,000  Level Jacksonville Center
06:59PM 30.5747 -82.0456 192° South 417 480 38,000  Level Jacksonville Center
07:00PM 30.4600 -82.0661 189° South 417 480 38,000  Level Jacksonville Center
07:01PM 30.3433 -82.0933 191° South 417 480 38,000  Level Jacksonville Center
07:02PM 30.2308 -82.1208 192° South 417 480 38,000  Level Jacksonville Center
07:03PM 30.1075 -82.1219 180° South 435 501 38,000  Level Jacksonville Center
07:04PM 29.9656 -82.0917 170° South 459 528 38,000  Level Jacksonville Center
07:05PM 29.8422 -82.0642 169° South 465 535 38,000  Level Jacksonville Center
07:06PM 29.7292 -82.0386 169° South 465 535 38,000 -60 Level Jacksonville Center
07:07PM 29.5911 -82.0161 172° South 465 535 37,900 -900 Descending Jacksonville Center
07:08PM 29.4658 -81.9908 170° South 465 535 36,200 -1,500 Descending Jacksonville Center
07:09PM 29.3383 -81.9658 170° South 465 535 35,000 -600 Descending Jacksonville Center
07:10PM 29.2339 -81.9478 171° South 465 535 35,000 -60 Level Jacksonville Center
07:11PM 29.0936 -81.9136 168° South 465 535 34,900 -1,500 Descending Jacksonville Center
07:13PM 28.8081 -81.8611 171° South 482 555 30,500 -2,160 Descending Miami Center
07:14PM 28.6733 -81.8364 171° South 482 555 28,400 -1,800 Descending Miami Center
07:15PM 28.5428 -81.8069 169° South 487 560 27,000 -720 Descending Miami Center
07:16PM 28.4108 -81.7681 165° South 487 560 27,000  Level Miami Center
07:17PM 28.2847 -81.7342 167° South 501 577 27,000 -900 Level Miami Center
07:18PM 28.1506 -81.6931 165° South 507 583 25,200 -2,160 Descending Miami Center
07:19PM 28.0239 -81.6689 170° South 493 567 22,700 -2,460 Descending Miami Center
07:20PM 27.9106 -81.6900 189° South 449 517 20,300 -2,520 Descending Miami Center
07:21PM 27.7844 -81.6564 167° South 428 493 17,700 -2,580 Descending Miami Center
07:22PM 27.6706 -81.6281 168° South 420 483 15,200 -2,280 Descending Miami Center
07:23PM 27.5753 -81.6078 169° South 415 478 13,200 -2,280 Descending Miami Center
07:24PM 27.4675 -81.5847 169° South 404 465 10,700 -1,620 Descending Miami Center
07:25PM 27.3700 -81.5642 169° South 384 442 10,000 -360 Descending Miami Center
07:26PM 27.2706 -81.5439 170° South 373 429 10,000  Level Miami Center
07:27PM 27.1689 -81.5211 169° South 368 423 10,000  Level Miami Center
07:28PM 27.0694 -81.4983 168° South 368 423 10,000 -120 Level Miami Center
07:29PM 26.9725 -81.4667 164° South 353 406 9,800 -900 Descending Miami Center
07:30PM 26.9006 -81.4289 155° Southeast 314 361 8,200 -900 Descending Miami Center
07:31PM 26.8306 -81.3936 156° South 281 323 8,000 -120 Descending Miami Center
07:32PM 26.7556 -81.3906 178° South 269 310 8,000  Level Miami Center
07:33PM 26.6781 -81.3969 184° South 269 310 8,000  Level Miami Center
07:34PM 26.6008 -81.3986 181° South 275 316 8,000  Level Miami Center
07:35PM 26.5256 -81.4025 183° South 275 316 8,000  Level Miami Center
07:37PM 26.3785 -81.4419 200° South  Level FlightAware Approximate
07:44PM 26.1500 -81.7667 246° West  Level FlightAware Approximate
07:45PM 26.1524 -81.7756 246° West  Level Estimated
07:46PM 26.1524 -81.7756 246° West  Level Estimated
07:47PM 26.1524 -81.7756 246° West  Level Estimated
07:48PM 26.1524 -81.7756 246° West  Level Estimated
07:49PM 26.1524 -81.7756 246° West  Level Estimated
07:50PM 26.1524 -81.7756 246° West  Level Estimated
07:51PM 26.1524 -81.7756 246° West  Level Estimated
07:52PM 26.1524 -81.7756 246° West  Level Estimated
07:53PM 26.1524 -81.7756 246° West  Level Estimated
07:54PM 26.1524 -81.7756 246° West  Level Estimated
07:55PM 26.1524 -81.7756 246° West  Level Estimated
07:56PM 26.1524 -81.7756 246° West  Level Estimated